createdAt,value
2022-08-01T00:00:27.225Z,40.97
2022-08-01T00:02:31.850Z,40.82
2022-08-01T00:04:34.890Z,40.82
2022-08-01T00:06:37.735Z,40.94
2022-08-01T00:08:40.622Z,40.85
2022-08-01T00:10:43.505Z,40.83
2022-08-01T00:12:47.658Z,41.13
2022-08-01T00:14:50.707Z,41.00
2022-08-01T00:16:54.892Z,41.14
2022-08-01T00:18:57.797Z,41.21
2022-08-01T00:21:00.688Z,41.31
2022-08-01T00:23:04.325Z,41.39
2022-08-01T00:25:08.339Z,41.65
2022-08-01T00:27:11.172Z,41.87
2022-08-01T00:30:11.914Z,42.00
2022-08-01T00:31:36.932Z,41.81
2022-08-01T00:33:41.209Z,42.26
2022-08-01T00:35:43.930Z,42.31
2022-08-01T00:37:46.771Z,42.66
2022-08-01T00:39:49.575Z,42.66
2022-08-01T00:42:01.676Z,43.08
2022-08-01T00:44:06.145Z,42.84
2022-08-01T00:46:09.056Z,43.19
2022-08-01T00:48:12.193Z,43.38
2022-08-01T00:50:16.472Z,43.35
2022-08-01T00:52:19.423Z,43.81
2022-08-01T00:54:22.379Z,43.55
2022-08-01T00:56:27.345Z,43.81
2022-08-01T00:58:33.111Z,43.70
2022-08-01T01:00:52.927Z,43.73
2022-08-01T01:02:57.078Z,43.99
2022-08-01T01:04:59.989Z,44.07
2022-08-01T01:07:11.736Z,44.00
2022-08-01T01:09:34.937Z,44.14
2022-08-01T01:11:46.202Z,44.35
2022-08-01T01:13:54.547Z,44.52
2022-08-01T01:16:01.597Z,44.63
2022-08-01T01:18:09.129Z,44.86
2022-08-01T01:20:15.051Z,44.69
2022-08-01T01:22:34.337Z,45.11
2022-08-01T01:24:46.210Z,45.32
2022-08-01T01:26:57.375Z,45.42
2022-08-01T01:29:10.740Z,45.84
2022-08-01T01:31:16.469Z,45.91
2022-08-01T01:33:22.934Z,46.17
2022-08-01T01:35:28.971Z,46.35
2022-08-01T01:37:35.007Z,46.50
2022-08-01T01:39:39.440Z,46.87
2022-08-01T01:41:50.300Z,47.03
2022-08-01T01:43:54.494Z,47.15
2022-08-01T01:45:59.192Z,47.14
2022-08-01T01:48:03.876Z,47.31
2022-08-01T01:50:09.620Z,47.59
2022-08-01T01:52:15.865Z,47.64
2022-08-01T01:54:20.254Z,47.75
2022-08-01T01:56:24.623Z,48.12
2022-08-01T01:58:29.413Z,48.28
2022-08-01T02:00:33.705Z,48.12
2022-08-01T02:02:38.077Z,48.51
2022-08-01T02:04:44.489Z,47.97
2022-08-01T02:06:48.804Z,47.91
2022-08-01T02:08:52.150Z,48.17
2022-08-01T02:11:15.386Z,47.93
2022-08-01T02:13:18.916Z,47.90
2022-08-01T02:15:26.317Z,47.92
2022-08-01T02:17:30.001Z,48.04
2022-08-01T02:19:38.091Z,48.16
2022-08-01T02:21:46.799Z,48.09
2022-08-01T02:23:51.597Z,48.13
2022-08-01T02:26:10.217Z,48.17
2022-08-01T02:28:19.499Z,47.93
2022-08-01T02:30:26.034Z,48.04
2022-08-01T02:32:33.921Z,48.03
2022-08-01T02:34:38.152Z,47.94
2022-08-01T02:36:40.875Z,48.07
2022-08-01T02:38:46.495Z,47.98
2022-08-01T02:40:54.093Z,48.17
2022-08-01T02:42:58.837Z,48.10
2022-08-01T02:45:04.446Z,48.16
2022-08-01T02:47:07.822Z,48.20
2022-08-01T02:49:13.812Z,48.07
2022-08-01T02:51:20.448Z,48.20
2022-08-01T02:53:39.096Z,47.96
2022-08-01T02:55:49.297Z,48.10
2022-08-01T02:57:58.444Z,48.06
2022-08-01T03:00:05.166Z,48.04
2022-08-01T03:02:10.473Z,48.03
2022-08-01T03:04:14.565Z,48.34
2022-08-01T03:06:19.401Z,48.43
2022-08-01T03:08:24.264Z,48.65
2022-08-01T03:10:29.640Z,48.90
2022-08-01T03:12:35.594Z,49.17
2022-08-01T03:14:41.784Z,49.34
2022-08-01T03:16:48.190Z,49.42
2022-08-01T03:18:53.876Z,49.34
2022-08-01T03:20:58.146Z,49.28
2022-08-01T03:23:05.373Z,49.42
2022-08-01T03:25:09.956Z,49.51
2022-08-01T03:27:14.228Z,49.43
2022-08-01T03:29:18.921Z,49.44
2022-08-01T03:31:21.842Z,49.41
2022-08-01T03:33:24.713Z,49.46
2022-08-01T03:35:32.047Z,49.66
2022-08-01T03:37:54.340Z,49.78
2022-08-01T03:40:09.896Z,49.86
2022-08-01T03:42:19.687Z,49.93
2022-08-01T03:44:26.505Z,50.03
2022-08-01T03:46:35.041Z,50.19
2022-08-01T03:48:42.786Z,50.10
2022-08-01T03:50:50.055Z,49.99
2022-08-01T03:52:53.537Z,48.11
2022-08-01T03:54:58.559Z,47.95
2022-08-01T03:57:03.790Z,47.73
2022-08-01T03:59:07.201Z,47.82
2022-08-01T04:01:15.894Z,47.64
2022-08-01T04:03:19.366Z,47.82
2022-08-01T04:05:22.475Z,47.98
2022-08-01T04:07:27.151Z,47.99
2022-08-01T04:09:30.103Z,48.04
2022-08-01T04:11:33.661Z,47.86
2022-08-01T04:13:38.392Z,47.88
2022-08-01T04:15:41.721Z,48.00
2022-08-01T04:17:44.568Z,48.15
2022-08-01T04:19:47.570Z,48.42
2022-08-01T04:21:50.659Z,48.51
2022-08-01T04:23:56.039Z,48.65
2022-08-01T04:26:01.418Z,48.94
2022-08-01T04:28:08.987Z,49.15
2022-08-01T04:30:17.975Z,49.33
2022-08-01T04:32:25.112Z,49.52
2022-08-01T04:34:30.005Z,50.02
2022-08-01T04:36:35.817Z,50.29
2022-08-01T04:38:40.314Z,50.34
2022-08-01T04:40:44.550Z,50.20
2022-08-01T04:42:49.774Z,50.21
2022-08-01T04:44:52.909Z,50.13
2022-08-01T04:46:57.962Z,50.08
2022-08-01T04:49:01.871Z,50.38
2022-08-01T04:51:05.210Z,50.40
2022-08-01T04:53:15.264Z,50.37
2022-08-01T04:55:18.517Z,50.33
2022-08-01T04:57:21.451Z,50.28
2022-08-01T04:59:42.569Z,50.37
2022-08-01T05:01:50.628Z,50.27
2022-08-01T05:03:54.951Z,50.22
2022-08-01T05:05:57.660Z,50.50
2022-08-01T05:08:01.153Z,50.71
2022-08-01T05:10:05.709Z,50.79
2022-08-01T05:12:11.793Z,51.00
2022-08-01T05:14:14.661Z,51.14
2022-08-01T05:16:17.918Z,51.21
2022-08-01T05:18:28.204Z,51.35
2022-08-01T05:20:33.016Z,51.25
2022-08-01T05:22:35.913Z,51.10
2022-08-01T05:24:40.520Z,51.43
2022-08-01T05:26:44.497Z,50.96
2022-08-01T05:28:47.338Z,50.97
2022-08-01T05:30:50.232Z,50.80
2022-08-01T05:32:53.278Z,51.23
2022-08-01T05:34:56.211Z,51.39
2022-08-01T05:37:00.668Z,51.54
2022-08-01T05:39:03.532Z,51.76
2022-08-01T05:41:06.749Z,51.50
2022-08-01T05:43:09.713Z,51.55
2022-08-01T05:45:12.674Z,51.48
2022-08-01T05:47:15.564Z,51.64
2022-08-01T05:49:18.617Z,51.89
2022-08-01T05:51:21.578Z,51.77
2022-08-01T05:53:25.707Z,51.87
2022-08-01T05:55:28.646Z,51.84
2022-08-01T05:57:31.557Z,51.54
2022-08-01T05:59:34.518Z,51.64
2022-08-01T06:01:37.615Z,51.59
2022-08-01T06:03:40.568Z,51.43
2022-08-01T06:05:43.413Z,51.04
2022-08-01T06:07:46.315Z,50.94
2022-08-01T06:09:50.525Z,50.30
2022-08-01T06:11:53.485Z,50.35
2022-08-01T06:13:56.428Z,50.45
2022-08-01T06:15:59.822Z,50.46
2022-08-01T06:18:02.713Z,50.34
2022-08-01T06:20:07.090Z,50.47
2022-08-01T06:22:09.818Z,50.60
2022-08-01T06:24:12.655Z,50.37
2022-08-01T06:26:19.491Z,50.60
2022-08-01T06:28:22.389Z,50.22
2022-08-01T06:30:25.379Z,50.07
2022-08-01T06:32:28.317Z,49.89
2022-08-01T06:34:31.154Z,50.21
2022-08-01T06:36:34.038Z,49.99
2022-08-01T06:38:36.882Z,50.10
2022-08-01T06:40:40.105Z,50.21
2022-08-01T06:42:45.089Z,49.77
2022-08-01T06:44:47.990Z,49.51
2022-08-01T06:46:50.815Z,49.63
2022-08-01T06:48:53.733Z,49.29
2022-08-01T06:51:09.535Z,48.31
2022-08-01T06:53:12.493Z,48.10
2022-08-01T06:55:15.780Z,48.77
2022-08-01T06:57:18.808Z,48.18
2022-08-01T06:59:22.991Z,48.11
2022-08-01T07:01:25.892Z,48.57
2022-08-01T07:03:54.586Z,48.51
2022-08-01T07:05:51.678Z,47.69
2022-08-01T07:07:54.808Z,48.10
2022-08-01T07:09:57.792Z,48.34
2022-08-01T07:12:00.661Z,48.39
2022-08-01T07:14:04.123Z,48.81
2022-08-01T07:16:08.380Z,48.41
2022-08-01T07:18:11.068Z,48.61
2022-08-01T07:20:16.177Z,49.05
2022-08-01T07:22:23.110Z,49.07
2022-08-01T07:24:26.945Z,48.89
2022-08-01T07:26:31.715Z,48.93
2022-08-01T07:28:34.766Z,49.04
2022-08-01T07:30:46.985Z,49.10
2022-08-01T07:32:51.218Z,49.00
2022-08-01T07:34:54.135Z,49.13
2022-08-01T07:36:57.087Z,49.16
2022-08-01T07:39:00.052Z,49.43
2022-08-01T07:41:04.398Z,49.30
2022-08-01T07:43:07.304Z,49.02
2022-08-01T07:45:11.074Z,49.06
2022-08-01T07:47:13.890Z,48.89
2022-08-01T07:49:18.178Z,48.60
2022-08-01T07:51:21.212Z,48.35
2022-08-01T07:53:24.371Z,47.94
2022-08-01T07:55:27.263Z,48.12
2022-08-01T07:57:30.151Z,48.13
2022-08-01T07:59:33.033Z,47.88
2022-08-01T08:01:35.915Z,47.90
2022-08-01T08:03:38.835Z,47.82
2022-08-01T08:05:58.027Z,48.09
2022-08-01T08:08:02.957Z,47.87
2022-08-01T08:10:06.790Z,47.02
2022-08-01T08:12:10.855Z,47.05
2022-08-01T08:14:14.073Z,46.63
2022-08-01T08:16:17.064Z,46.70
2022-08-01T08:18:19.932Z,46.17
2022-08-01T08:20:25.896Z,46.20
2022-08-01T08:22:30.215Z,46.87
2022-08-01T08:24:32.065Z,46.06
2022-08-01T08:26:34.968Z,45.81
2022-08-01T08:28:38.067Z,46.55
2022-08-01T08:30:43.386Z,46.48
2022-08-01T08:32:46.669Z,46.85
2022-08-01T08:34:49.576Z,46.77
2022-08-01T08:36:53.444Z,46.90
2022-08-01T08:38:57.860Z,47.18
2022-08-01T08:41:01.425Z,47.55
2022-08-01T08:43:06.124Z,47.21
2022-08-01T08:45:12.122Z,46.92
2022-08-01T08:47:20.231Z,46.95
2022-08-01T08:49:26.003Z,46.76
2022-08-01T08:51:31.993Z,46.30
2022-08-01T08:53:36.669Z,46.92
2022-08-01T08:55:55.770Z,47.21
2022-08-01T08:58:01.507Z,46.93
2022-08-01T09:00:05.488Z,47.17
2022-08-01T09:02:10.542Z,46.93
2022-08-01T09:04:13.677Z,46.59
2022-08-01T09:06:16.623Z,46.49
2022-08-01T09:08:19.802Z,47.00
2022-08-01T09:10:23.015Z,46.17
2022-08-01T09:12:27.289Z,46.16
2022-08-01T09:14:31.328Z,45.99
2022-08-01T09:16:35.404Z,46.04
2022-08-01T09:18:41.601Z,46.04
2022-08-01T09:20:44.546Z,45.72
2022-08-01T09:22:48.058Z,45.61
2022-08-01T09:25:01.878Z,45.27
2022-08-01T09:27:22.139Z,44.77
2022-08-01T09:29:36.267Z,44.88
2022-08-01T09:31:47.348Z,45.62
2022-08-01T09:33:53.662Z,45.54
2022-08-01T09:35:59.150Z,44.97
2022-08-01T09:38:18.938Z,45.25
2022-08-01T09:40:21.837Z,45.51
2022-08-01T09:42:28.703Z,45.35
2022-08-01T09:44:42.647Z,45.90
2022-08-01T09:46:53.626Z,44.79
2022-08-01T09:49:00.881Z,43.72
2022-08-01T09:51:09.523Z,43.39
2022-08-01T09:53:22.862Z,42.87
2022-08-01T09:55:32.656Z,43.37
2022-08-01T09:57:35.676Z,43.14
2022-08-01T09:59:57.806Z,42.87
2022-08-01T10:02:01.459Z,42.65
2022-08-01T10:04:10.944Z,43.38
2022-08-01T10:06:24.884Z,43.05
2022-08-01T10:08:29.140Z,43.82
2022-08-01T10:10:32.986Z,44.49
2022-08-01T10:12:36.242Z,43.96
2022-08-01T10:14:42.267Z,44.47
2022-08-01T10:16:52.953Z,44.30
2022-08-01T10:18:57.242Z,43.65
2022-08-01T10:21:01.290Z,44.13
2022-08-01T10:23:06.992Z,44.07
2022-08-01T10:25:10.978Z,44.63
2022-08-01T10:27:24.518Z,44.94
2022-08-01T10:30:05.904Z,44.69
2022-08-01T10:32:11.946Z,44.12
2022-08-01T10:34:18.390Z,44.39
2022-08-01T10:36:27.171Z,44.66
2022-08-01T10:38:31.945Z,44.75
2022-08-01T10:40:37.620Z,44.33
2022-08-01T10:42:41.992Z,44.25
2022-08-01T10:44:47.316Z,44.67
2022-08-01T10:46:56.550Z,44.53
2022-08-01T10:49:05.097Z,44.13
2022-08-01T10:51:18.217Z,44.20
2022-08-01T10:53:30.870Z,43.49
2022-08-01T10:55:51.186Z,43.70
2022-08-01T10:57:56.019Z,43.46
2022-08-01T11:00:02.825Z,43.33
2022-08-01T11:02:07.062Z,43.53
2022-08-01T11:04:16.596Z,43.71
2022-08-01T11:06:26.393Z,43.11
2022-08-01T11:08:31.791Z,42.09
2022-08-01T11:10:40.025Z,42.79
2022-08-01T11:12:44.362Z,43.15
2022-08-01T11:15:32.113Z,42.97
2022-08-01T11:17:42.046Z,42.40
2022-08-01T11:20:07.824Z,42.57
2022-08-01T11:22:11.258Z,42.71
2022-08-01T11:24:14.247Z,42.83
2022-08-01T11:26:29.276Z,42.85
2022-08-01T11:28:36.541Z,41.09
2022-08-01T11:30:41.684Z,41.18
2022-08-01T11:33:10.234Z,41.27
2022-08-01T11:35:11.089Z,41.80
2022-08-01T11:37:30.429Z,42.51
2022-08-01T11:39:38.641Z,42.10
2022-08-01T11:41:44.856Z,41.96
2022-08-01T11:43:57.677Z,41.56
2022-08-01T11:46:03.807Z,41.14
2022-08-01T11:48:19.925Z,41.04
2022-08-01T11:50:33.759Z,41.28
2022-08-01T11:52:37.196Z,41.20
2022-08-01T11:54:42.229Z,41.23
2022-08-01T11:56:46.617Z,41.67
2022-08-01T11:58:51.229Z,41.61
2022-08-01T12:00:54.785Z,41.21
2022-08-01T12:03:07.802Z,41.35
2022-08-01T12:05:12.835Z,41.42
2022-08-01T12:07:17.751Z,41.07
2022-08-01T12:09:22.063Z,39.48
2022-08-01T12:11:24.968Z,40.08
2022-08-01T12:13:44.222Z,40.16
2022-08-01T12:15:49.722Z,39.71
2022-08-01T12:17:59.934Z,39.04
2022-08-01T12:20:06.671Z,39.67
2022-08-01T12:22:14.504Z,39.71
2022-08-01T12:24:24.122Z,40.12
2022-08-01T12:26:41.170Z,40.16
2022-08-01T12:28:43.988Z,39.53
2022-08-01T12:30:50.084Z,39.63
2022-08-01T12:32:54.695Z,38.46
2022-08-01T12:34:57.749Z,38.32
2022-08-01T12:37:05.330Z,38.49
2022-08-01T12:39:09.577Z,38.30
2022-08-01T12:41:12.979Z,38.03
2022-08-01T12:43:27.786Z,38.02
2022-08-01T12:45:34.977Z,38.03
2022-08-01T12:47:39.084Z,37.32
2022-08-01T12:49:43.395Z,36.48
2022-08-01T12:51:46.559Z,36.33
2022-08-01T12:54:01.982Z,36.75
2022-08-01T12:56:05.096Z,35.85
2022-08-01T12:58:15.918Z,36.81
2022-08-01T13:00:22.609Z,36.66
2022-08-01T13:02:33.855Z,36.80
2022-08-01T13:04:51.881Z,36.99
2022-08-01T13:06:55.752Z,37.34
2022-08-01T13:09:08.522Z,36.52
2022-08-01T13:11:15.223Z,35.99
2022-08-01T13:13:27.770Z,36.35
2022-08-01T13:15:33.699Z,36.23
2022-08-01T13:17:39.495Z,36.62
2022-08-01T13:19:45.342Z,36.05
2022-08-01T13:21:58.096Z,36.73
2022-08-01T13:24:08.063Z,36.71
2022-08-01T13:26:10.936Z,36.15
2022-08-01T13:28:17.370Z,36.71
2022-08-01T13:30:22.908Z,36.57
2022-08-01T13:32:29.317Z,36.52
2022-08-01T13:34:33.944Z,36.30
2022-08-01T13:36:37.275Z,36.00
2022-08-01T13:38:58.165Z,35.45
2022-08-01T13:41:02.357Z,35.83
2022-08-01T13:43:05.221Z,35.64
2022-08-01T13:45:13.743Z,36.53
2022-08-01T13:47:17.924Z,35.49
2022-08-01T13:49:20.852Z,35.71
2022-08-01T13:51:25.740Z,35.37
2022-08-01T13:53:28.990Z,35.04
2022-08-01T13:55:34.866Z,35.71
2022-08-01T13:57:39.722Z,35.88
2022-08-01T13:59:44.924Z,36.51
2022-08-01T14:01:48.458Z,36.69
2022-08-01T14:03:51.863Z,36.40
2022-08-01T14:05:58.842Z,36.46
2022-08-01T14:08:01.849Z,36.98
2022-08-01T14:10:19.517Z,36.69
2022-08-01T14:12:23.830Z,37.17
2022-08-01T14:14:28.242Z,36.34
2022-08-01T14:16:31.149Z,36.95
2022-08-01T14:18:34.210Z,37.22
2022-08-01T14:20:41.119Z,36.93
2022-08-01T14:22:43.980Z,36.37
2022-08-01T14:24:47.094Z,36.25
2022-08-01T14:26:50.459Z,36.75
2022-08-01T14:28:53.439Z,36.40
2022-08-01T14:30:57.966Z,36.83
2022-08-01T14:33:00.811Z,37.47
2022-08-01T14:35:04.606Z,37.20
2022-08-01T14:37:07.753Z,36.94
2022-08-01T14:39:14.857Z,37.42
2022-08-01T14:41:43.091Z,37.29
2022-08-01T14:43:48.627Z,37.42
2022-08-01T14:45:53.014Z,37.55
2022-08-01T14:47:57.194Z,37.63
2022-08-01T14:50:00.178Z,37.51
2022-08-01T14:52:03.605Z,37.00
2022-08-01T14:54:07.354Z,35.77
2022-08-01T14:56:12.356Z,37.04
2022-08-01T14:58:15.365Z,36.89
2022-08-01T15:00:18.975Z,36.65
2022-08-01T15:02:22.177Z,36.26
2022-08-01T15:04:26.734Z,36.81
2022-08-01T15:06:30.212Z,36.06
2022-08-01T15:08:33.292Z,36.06
2022-08-01T15:10:36.279Z,36.37
2022-08-01T15:12:49.924Z,36.32
2022-08-01T15:14:53.399Z,36.71
2022-08-01T15:16:56.305Z,36.59
2022-08-01T15:18:59.202Z,37.10
2022-08-01T15:21:04.081Z,36.46
2022-08-01T15:23:07.076Z,36.07
2022-08-01T15:25:09.974Z,35.64
2022-08-01T15:27:12.975Z,35.84
2022-08-01T15:29:16.461Z,35.75
2022-08-01T15:31:19.335Z,35.81
2022-08-01T15:33:22.655Z,35.76
2022-08-01T15:35:25.841Z,35.84
2022-08-01T15:37:30.100Z,35.72
2022-08-01T15:39:34.004Z,35.70
2022-08-01T15:41:36.956Z,36.02
2022-08-01T15:43:44.212Z,36.19
2022-08-01T15:45:48.906Z,36.63
2022-08-01T15:47:51.797Z,37.04
2022-08-01T15:49:56.663Z,37.06
2022-08-01T15:51:59.802Z,37.19
2022-08-01T15:54:09.166Z,37.38
2022-08-01T15:56:15.286Z,37.44
2022-08-01T15:58:18.184Z,37.22
2022-08-01T16:00:21.055Z,37.33
2022-08-01T16:02:24.243Z,37.21
2022-08-01T16:04:29.847Z,37.47
2022-08-01T16:06:33.379Z,37.46
2022-08-01T16:08:36.266Z,37.34
2022-08-01T16:10:40.579Z,37.32
2022-08-01T16:12:43.479Z,37.63
2022-08-01T16:14:46.652Z,37.74
2022-08-01T16:16:50.027Z,38.02
2022-08-01T16:18:53.910Z,38.12
2022-08-01T16:20:58.713Z,38.15
2022-08-01T16:23:01.737Z,38.20
2022-08-01T16:25:05.028Z,37.86
2022-08-01T16:27:09.555Z,38.46
2022-08-01T16:29:12.770Z,38.25
2022-08-01T16:31:16.986Z,38.10
2022-08-01T16:33:45.680Z,38.18
2022-08-01T16:35:47.182Z,38.12
2022-08-01T16:37:53.054Z,38.05
2022-08-01T16:39:56.382Z,38.39
2022-08-01T16:41:59.321Z,38.35
2022-08-01T16:44:06.577Z,38.17
2022-08-01T16:46:09.671Z,38.31
2022-08-01T16:48:12.860Z,38.11
2022-08-01T16:50:16.153Z,38.45
2022-08-01T16:52:20.580Z,38.51
2022-08-01T16:54:24.997Z,38.28
2022-08-01T16:56:29.312Z,38.49
2022-08-01T16:58:32.177Z,39.01
2022-08-01T17:00:38.569Z,38.51
2022-08-01T17:02:42.883Z,38.57
2022-08-01T17:04:45.740Z,38.92
2022-08-01T17:06:49.778Z,38.58
2022-08-01T17:08:52.640Z,38.71
2022-08-01T17:10:55.551Z,39.08
2022-08-01T17:12:58.451Z,38.97
2022-08-01T17:15:01.346Z,39.24
2022-08-01T17:17:06.253Z,38.74
2022-08-01T17:19:09.290Z,38.83
2022-08-01T17:21:12.208Z,39.09
2022-08-01T17:23:15.283Z,38.93
2022-08-01T17:25:18.445Z,39.05
2022-08-01T17:27:21.778Z,39.07
2022-08-01T17:29:24.675Z,39.25
2022-08-01T17:31:27.547Z,39.43
2022-08-01T17:33:44.360Z,39.52
2022-08-01T17:35:49.386Z,39.38
2022-08-01T17:37:52.264Z,39.24
2022-08-01T17:39:55.121Z,39.21
2022-08-01T17:41:58.025Z,39.53
2022-08-01T17:44:01.007Z,39.17
2022-08-01T17:46:03.908Z,39.12
2022-08-01T17:48:06.955Z,39.68
2022-08-01T17:50:12.829Z,39.12
2022-08-01T17:52:15.741Z,39.59
2022-08-01T17:54:18.880Z,39.72
2022-08-01T17:56:21.821Z,39.79
2022-08-01T17:58:50.372Z,40.31
2022-08-01T18:00:47.977Z,40.48
2022-08-01T18:02:50.868Z,40.53
2022-08-01T18:04:53.815Z,40.78
2022-08-01T18:06:59.174Z,40.70
2022-08-01T18:09:02.115Z,41.23
2022-08-01T18:11:05.127Z,41.42
2022-08-01T18:13:08.205Z,41.36
2022-08-01T18:15:15.195Z,41.22
2022-08-01T18:17:18.301Z,41.61
2022-08-01T18:19:21.246Z,41.66
2022-08-01T18:21:24.302Z,41.58
2022-08-01T18:23:28.637Z,41.96
2022-08-01T18:25:31.756Z,41.29
2022-08-01T18:28:23.491Z,41.48
2022-08-01T18:29:58.202Z,41.62
2022-08-01T18:32:03.226Z,41.93
2022-08-01T18:34:06.532Z,41.95
2022-08-01T18:36:11.421Z,42.26
2022-08-01T18:38:35.207Z,41.85
2022-08-01T18:40:42.017Z,41.75
2022-08-01T18:42:44.983Z,42.33
2022-08-01T18:44:47.903Z,42.54
2022-08-01T18:46:50.968Z,42.48
2022-08-01T18:48:53.952Z,42.00
2022-08-01T18:50:56.959Z,42.61
2022-08-01T18:52:59.883Z,42.24
2022-08-01T18:55:04.692Z,42.10
2022-08-01T18:57:07.861Z,42.60
2022-08-01T18:59:11.017Z,42.38
2022-08-01T19:01:14.426Z,42.34
2022-08-01T19:03:20.367Z,42.72
2022-08-01T19:05:23.181Z,43.08
2022-08-01T19:07:53.501Z,43.13
2022-08-01T19:09:49.106Z,42.81
2022-08-01T19:11:53.367Z,42.95
2022-08-01T19:13:56.234Z,43.45
2022-08-01T19:15:59.247Z,43.34
2022-08-01T19:18:03.047Z,43.28
2022-08-01T19:20:06.940Z,43.14
2022-08-01T19:22:09.958Z,43.37
2022-08-01T19:24:23.502Z,43.68
2022-08-01T19:26:28.144Z,43.67
2022-08-01T19:28:46.967Z,43.10
2022-08-01T19:30:53.426Z,43.70
2022-08-01T19:32:57.421Z,43.46
2022-08-01T19:35:05.541Z,43.36
2022-08-01T19:37:08.819Z,43.14
2022-08-01T19:39:12.113Z,43.59
2022-08-01T19:41:16.638Z,43.45
2022-08-01T19:43:22.227Z,43.55
2022-08-01T19:45:30.280Z,44.14
2022-08-01T19:47:51.575Z,44.24
2022-08-01T19:49:56.965Z,44.00
2022-08-01T19:52:02.280Z,43.93
2022-08-01T19:54:11.064Z,44.30
2022-08-01T19:56:15.229Z,44.16
2022-08-01T19:58:28.019Z,44.16
2022-08-01T20:00:32.785Z,44.62
2022-08-01T20:02:35.811Z,44.54
2022-08-01T20:04:38.677Z,44.63
2022-08-01T20:06:41.581Z,45.01
2022-08-01T20:08:44.620Z,45.24
2022-08-01T20:10:48.604Z,45.15
2022-08-01T20:12:51.609Z,45.10
2022-08-01T20:14:54.749Z,45.17
2022-08-01T20:16:59.027Z,44.86
2022-08-01T20:19:01.780Z,45.33
2022-08-01T20:21:06.301Z,45.29
2022-08-01T20:23:17.891Z,45.58
2022-08-01T20:25:23.607Z,45.40
2022-08-01T20:27:28.131Z,45.80
2022-08-01T20:29:31.147Z,46.00
2022-08-01T20:31:42.893Z,46.16
2022-08-01T20:33:50.501Z,46.08
2022-08-01T20:35:54.469Z,46.23
2022-08-01T20:38:03.465Z,46.54
2022-08-01T20:40:12.439Z,46.75
2022-08-01T20:42:15.948Z,46.97
2022-08-01T20:44:20.351Z,47.20
2022-08-01T20:46:25.751Z,47.17
2022-08-01T20:48:31.178Z,47.24
2022-08-01T20:50:54.813Z,47.69
2022-08-01T20:52:57.978Z,47.63
2022-08-01T20:55:00.885Z,47.53
2022-08-01T20:57:07.578Z,47.41
2022-08-01T20:59:39.438Z,47.41
2022-08-01T21:01:47.842Z,47.63
2022-08-01T21:04:03.176Z,47.70
2022-08-01T21:06:13.714Z,47.54
2022-08-01T21:08:22.199Z,47.62
2022-08-01T21:10:29.736Z,47.44
2022-08-01T21:12:45.757Z,47.00
2022-08-01T21:14:52.914Z,46.63
2022-08-01T21:17:02.488Z,46.80
2022-08-01T21:19:21.433Z,47.22
2022-08-01T21:21:27.912Z,47.49
2022-08-01T21:23:35.080Z,47.54
2022-08-01T21:25:38.854Z,47.55
2022-08-01T21:27:41.821Z,47.82
2022-08-01T21:29:48.662Z,47.79
2022-08-01T21:32:11.413Z,47.46
2022-08-01T21:34:17.437Z,47.54
2022-08-01T21:36:20.788Z,47.66
2022-08-01T21:38:26.584Z,47.88
2022-08-01T21:40:32.970Z,47.76
2022-08-01T21:42:38.984Z,47.82
2022-08-01T21:44:45.640Z,47.95
2022-08-01T21:46:49.574Z,47.69
2022-08-01T21:48:52.755Z,47.45
2022-08-01T21:50:58.032Z,47.47
2022-08-01T21:53:11.902Z,47.23
2022-08-01T21:55:34.026Z,47.40
2022-08-01T21:57:56.165Z,47.43
2022-08-01T22:00:07.386Z,46.74
2022-08-01T22:02:17.463Z,47.12
2022-08-01T22:04:25.867Z,46.83
2022-08-01T22:06:32.072Z,47.05
2022-08-01T22:08:36.576Z,47.18
2022-08-01T22:10:41.335Z,47.06
2022-08-01T22:12:47.574Z,47.16
2022-08-01T22:14:54.948Z,47.37
2022-08-01T22:16:59.724Z,47.01
2022-08-01T22:19:03.150Z,47.00
2022-08-01T22:21:06.028Z,47.46
2022-08-01T22:23:09.074Z,47.32
2022-08-01T22:25:13.281Z,47.17
2022-08-01T22:28:06.335Z,47.44
2022-08-01T22:29:47.941Z,47.79
2022-08-01T22:31:56.702Z,47.80
2022-08-01T22:33:59.784Z,47.49
2022-08-01T22:36:04.783Z,47.45
2022-08-01T22:38:07.723Z,47.38
2022-08-01T22:40:15.124Z,47.58
2022-08-01T22:42:22.668Z,47.30
2022-08-01T22:44:30.358Z,47.50
2022-08-01T22:46:40.388Z,47.53
2022-08-01T22:48:47.282Z,47.58
2022-08-01T22:50:54.803Z,47.41
2022-08-01T22:53:13.541Z,47.17
2022-08-01T22:55:21.733Z,47.28
2022-08-01T22:57:41.425Z,47.14
2022-08-01T22:59:50.679Z,47.59
2022-08-01T23:01:54.323Z,47.34
2022-08-01T23:03:58.930Z,47.11
2022-08-01T23:06:04.236Z,47.30
2022-08-01T23:08:10.605Z,47.57
2022-08-01T23:10:21.573Z,47.50
2022-08-01T23:12:27.923Z,47.54
2022-08-01T23:14:32.949Z,47.50
2022-08-01T23:16:36.596Z,47.18
2022-08-01T23:18:44.642Z,47.32
2022-08-01T23:20:52.651Z,47.16
2022-08-01T23:22:56.707Z,46.98
2022-08-01T23:25:04.926Z,47.24
2022-08-01T23:27:25.862Z,47.51
2022-08-01T23:29:50.691Z,47.87
2022-08-01T23:32:02.659Z,48.14
2022-08-01T23:34:06.571Z,48.10
2022-08-01T23:36:09.802Z,48.38
2022-08-01T23:38:15.030Z,48.50
2022-08-01T23:40:18.173Z,48.49
2022-08-01T23:42:21.154Z,48.61
2022-08-01T23:44:24.002Z,48.82
2022-08-01T23:46:28.232Z,48.24
2022-08-01T23:48:31.257Z,48.47
2022-08-01T23:50:34.259Z,48.73
2022-08-01T23:52:47.275Z,48.63
2022-08-01T23:54:51.599Z,48.61
2022-08-01T23:56:55.486Z,48.73
2022-08-01T23:58:58.694Z,48.86
